Time;durP1;ratioP1;P1;durP2;ratioP2;P2;SDS_P1;SDS_P2;PMS_P1;PMS_P2;Temp;Humidity;BMP_temperature;BMP_pressure;BME280_temperature;BME280_humidity;BME280_pressure;Samples;Min_cycle;Max_cycle;Signal;HPM_P1;HPM_P2
2023/06/06 06:46:52;;;;;;;;;21.25;16.00;;;;;19.21;51.41;101455.03;5092863;27;45764;-68
2023/06/06 06:49:17;;;;;;;;;19.25;16.25;;;;;19.40;50.85;101463.44;5084464;27;45561;-69
2023/06/06 06:51:43;;;;;;;;;21.50;18.50;;;;;19.62;50.90;101465.28;5081587;27;45388;-70
2023/06/06 06:54:12;;;;;;;;;19.25;15.00;;;;;19.86;50.60;101469.63;5086237;27;45469;-71
2023/06/06 06:56:43;;;;;;;;;16.75;16.75;;;;;20.08;50.47;101468.75;5094303;27;45711;-71
2023/06/06 06:59:09;;;;;;;;;21.25;19.00;;;;;20.27;49.87;101461.78;5085489;27;45454;-70
2023/06/06 07:01:37;;;;;;;;;22.00;16.00;;;;;20.51;49.33;101464.25;5087938;27;45478;-70
2023/06/06 07:04:04;;;;;;;;;18.75;17.00;;;;;20.71;49.26;101452.75;5085727;27;45781;-69
2023/06/06 07:06:32;;;;;;;;;17.50;16.75;;;;;20.90;48.65;101470.94;5079556;27;45723;-68
2023/06/06 07:08:58;;;;;;;;;21.25;18.75;;;;;21.07;48.21;101461.38;5083762;27;45535;-69
2023/06/06 07:11:23;;;;;;;;;18.25;16.25;;;;;21.22;48.52;101467.28;5086033;27;45342;-68
2023/06/06 07:13:49;;;;;;;;;20.67;17.00;;;;;21.35;48.20;101467.03;5075669;27;45503;-69
2023/06/06 07:16:14;;;;;;;;;23.25;18.75;;;;;21.48;47.36;101474.03;5079035;27;47297;-69
2023/06/06 07:18:39;;;;;;;;;16.25;16.25;;;;;21.56;47.61;101460.69;5068148;27;45431;-70
2023/06/06 07:21:05;;;;;;;;;16.50;16.50;;;;;21.73;47.88;101470.00;5085502;27;45457;-71
2023/06/06 07:23:31;;;;;;;;;16.25;13.75;;;;;21.84;48.13;101469.03;5073161;27;45476;-69
2023/06/06 07:25:57;;;;;;;;;25.75;22.50;;;;;21.96;46.97;101467.06;5111564;27;45685;-72
2023/06/06 07:28:23;;;;;;;;;25.00;23.75;;;;;22.03;47.07;101468.19;5082951;27;45954;-72
2023/06/06 07:30:48;;;;;;;;;25.00;21.50;;;;;22.11;46.64;101468.34;5079472;27;45538;-73
2023/06/06 07:33:13;;;;;;;;;23.25;19.50;;;;;22.21;45.80;101467.50;5083749;27;45565;-72
2023/06/06 07:35:39;;;;;;;;;23.50;20.00;;;;;22.25;45.73;101472.47;5091372;27;52442;-72
2023/06/06 07:38:04;;;;;;;;;23.00;19.50;;;;;22.33;45.67;101465.50;5072642;27;45450;-72
2023/06/06 07:40:30;;;;;;;;;25.25;22.25;;;;;22.36;45.73;101457.97;5080894;27;45791;-72
2023/06/06 07:42:57;;;;;;;;;20.50;19.25;;;;;22.46;45.41;101470.63;5116608;27;45656;-72
2023/06/06 07:45:23;;;;;;;;;20.50;19.75;;;;;22.49;45.49;101457.66;5082479;27;46584;-72
2023/06/06 07:47:48;;;;;;;;;24.25;20.25;;;;;22.56;45.35;101459.84;5087467;27;45370;-70
2023/06/06 07:50:13;;;;;;;;;24.25;22.00;;;;;22.60;44.89;101458.56;5087570;27;45356;-69
2023/06/06 07:52:43;;;;;;;;;26.50;24.50;;;;;22.66;44.64;101462.50;5087942;27;45410;-70
2023/06/06 07:55:11;;;;;;;;;27.25;23.00;;;;;22.71;45.06;101460.22;5088128;27;45585;-70
2023/06/06 07:57:39;;;;;;;;;19.50;17.25;;;;;22.74;45.04;101459.94;5078116;27;45437;-70
2023/06/06 08:00:13;;;;;;;;;19.50;19.50;;;;;22.78;44.87;101458.66;5073406;28;45376;-71
2023/06/06 08:02:42;;;;;;;;;22.25;21.75;;;;;22.80;44.49;101453.94;5073870;27;45546;-71
2023/06/06 08:05:09;;;;;;;;;22.00;21.25;;;;;22.86;44.74;101457.91;5071960;28;45539;-71
2023/06/06 08:07:38;;;;;;;;;27.00;22.50;;;;;22.77;44.41;101436.13;5073282;28;45791;-71
2023/06/06 08:10:05;;;;;;;;;27.50;21.50;;;;;22.83;44.32;101447.38;5074642;28;45506;-71
2023/06/06 08:12:31;;;;;;;;;23.00;20.50;;;;;22.85;44.15;101434.56;5069851;27;45528;-71
2023/06/06 08:14:56;;;;;;;;;21.50;19.50;;;;;22.87;44.23;101435.25;5064965;28;46319;-71
2023/06/06 08:17:22;;;;;;;;;23.33;18.67;;;;;22.94;44.53;101438.22;5070191;28;45478;-71
2023/06/06 08:19:47;;;;;;;;;22.50;19.50;;;;;22.93;44.15;101425.69;5069255;27;45938;-70
2023/06/06 08:22:12;;;;;;;;;23.25;19.75;;;;;22.98;44.22;101440.50;5073631;27;45552;-70
2023/06/06 08:24:39;;;;;;;;;24.75;23.00;;;;;22.96;43.58;101428.97;5074034;27;45476;-71
2023/06/06 08:27:05;;;;;;;;;24.67;21.67;;;;;23.05;43.80;101443.44;5073840;27;45414;-70
2023/06/06 08:29:30;;;;;;;;;24.00;21.25;;;;;23.02;43.94;101433.78;5073863;27;45347;-69
2023/06/06 08:31:56;;;;;;;;;22.50;18.25;;;;;23.09;43.89;101444.84;5071332;27;45446;-69
2023/06/06 08:34:23;;;;;;;;;19.00;19.00;;;;;23.09;43.99;101431.31;5064644;28;45462;-69
2023/06/06 08:36:49;;;;;;;;;25.00;21.67;;;;;23.17;43.65;101444.97;5073834;27;45413;-69
2023/06/06 08:39:18;;;;;;;;;29.00;21.67;;;;;23.17;43.79;101435.97;5073384;27;45431;-70
2023/06/06 08:41:52;;;;;;;;;22.33;21.67;;;;;23.24;43.70;101447.06;5067849;28;45809;-71
2023/06/06 08:44:20;;;;;;;;;19.67;19.67;;;;;23.19;43.72;101433.13;5073757;27;46374;-70
2023/06/06 08:46:48;;;;;;;;;21.00;18.50;;;;;23.25;43.75;101444.22;5072706;28;45511;-70
2023/06/06 08:49:17;;;;;;;;;21.75;21.00;;;;;23.25;43.73;101449.63;5089430;27;45416;-70
2023/06/06 08:51:43;;;;;;;;;23.25;20.75;;;;;23.35;44.04;101460.47;5085076;27;45716;-70
2023/06/06 08:54:10;;;;;;;;;25.33;22.67;;;;;23.34;43.32;101453.31;5073563;28;45458;-70
2023/06/06 08:56:37;;;;;;;;;21.33;18.33;;;;;23.32;43.40;101454.44;5072842;27;45478;-70
2023/06/06 08:59:02;;;;;;;;;19.75;19.00;;;;;23.38;43.45;101454.75;5073456;28;45435;-71
2023/06/06 09:01:28;;;;;;;;;26.25;24.25;;;;;23.46;43.67;101455.84;5073311;28;45506;-70
2023/06/06 09:03:57;;;;;;;;;26.33;22.67;;;;;23.42;43.49;101452.59;5072348;28;46358;-70
2023/06/06 09:06:23;;;;;;;;;23.00;20.75;;;;;23.49;43.62;101467.25;5062714;27;45568;-70
2023/06/06 09:08:49;;;;;;;;;22.00;19.75;;;;;23.47;43.23;101454.84;5068923;27;45499;-71
2023/06/06 09:11:17;;;;;;;;;25.67;23.67;;;;;23.43;43.28;101441.59;5067496;27;45470;-71
2023/06/06 09:13:44;;;;;;;;;22.00;22.00;;;;;23.50;43.18;101451.84;5060024;27;45460;-70
2023/06/06 09:16:09;;;;;;;;;22.25;21.25;;;;;23.49;43.30;101448.28;5073383;27;45655;-70
2023/06/06 09:18:38;;;;;;;;;20.00;18.67;;;;;23.53;43.11;101451.53;5072401;27;45376;-70
2023/06/06 09:21:04;;;;;;;;;20.67;20.67;;;;;23.57;43.27;101446.69;5068513;27;45514;-69
2023/06/06 09:23:30;;;;;;;;;20.00;18.67;;;;;23.55;43.19;101442.25;5063101;27;45519;-69
2023/06/06 09:25:56;;;;;;;;;24.00;20.33;;;;;23.55;43.19;101444.94;5056747;27;45542;-69
2023/06/06 09:28:36;;;;;;;;;19.33;18.33;;;;;23.65;43.41;101461.16;5067509;27;45773;-70
2023/06/06 09:31:29;;;;;;;;;18.00;14.67;;;;;23.61;43.29;101443.50;5073370;28;45431;-69
2023/06/06 09:33:57;;;;;;;;;23.33;19.33;;;;;23.71;43.68;101464.25;5059266;27;45488;-69
2023/06/06 09:36:27;;;;;;;;;20.67;20.67;;;;;23.71;43.41;101457.00;5081871;27;45538;-70
2023/06/06 09:39:10;;;;;;;;;17.67;16.00;;;;;23.61;43.18;101439.91;5051556;28;45463;-68
2023/06/06 09:41:45;;;;;;;;;18.67;16.00;;;;;23.62;43.29;101434.34;5066261;27;45468;-68
2023/06/06 09:44:21;;;;;;;;;17.00;17.00;;;;;23.60;43.17;101438.22;5072115;28;45811;-68
2023/06/06 09:46:48;;;;;;;;;16.33;16.33;;;;;23.63;43.09;101440.63;5066126;27;45386;-68
2023/06/06 09:49:14;;;;;;;;;19.00;17.33;;;;;23.60;43.40;101436.38;5061900;28;45308;-68
2023/06/06 09:51:43;;;;;;;;;15.00;14.33;;;;;23.65;43.19;101442.19;5067076;28;45501;-68
2023/06/06 09:54:12;;;;;;;;;16.33;16.33;;;;;23.74;43.36;101445.84;5069155;27;45462;-69
2023/06/06 09:56:42;;;;;;;;;21.50;17.00;;;;;23.69;43.49;101432.75;5060686;27;45446;-69
2023/06/06 09:59:08;;;;;;;;;19.33;18.33;;;;;23.70;43.41;101428.16;5058067;27;45376;-69
2023/06/06 10:01:38;;;;;;;;;19.67;17.33;;;;;23.70;43.63;101425.47;5060119;27;45753;-69
2023/06/06 10:04:05;;;;;;;;;17.67;15.33;;;;;23.70;43.16;101417.31;5060986;27;45511;-69
2023/06/06 10:06:33;;;;;;;;;18.00;17.00;;;;;23.79;43.25;101429.13;5058166;28;46578;-69
2023/06/06 10:09:05;;;;;;;;;14.00;14.00;;;;;23.74;43.51;101423.31;5067869;27;45524;-69
2023/06/06 10:11:32;;;;;;;;;18.33;14.00;;;;;23.85;43.42;101427.63;5062790;27;45559;-69
2023/06/06 10:13:58;;;;;;;;;19.00;17.00;;;;;23.73;43.30;101408.91;5061863;27;46053;-69
2023/06/06 10:16:26;;;;;;;;;19.00;15.67;;;;;23.87;43.35;101431.91;5059581;27;45568;-69
2023/06/06 10:18:53;;;;;;;;;18.67;15.33;;;;;23.81;43.27;101414.41;5070319;27;45506;-69
2023/06/06 10:21:20;;;;;;;;;19.00;17.67;;;;;23.91;43.51;101419.75;5070698;27;45505;-69
2023/06/06 10:23:45;;;;;;;;;18.33;15.67;;;;;23.85;42.97;101405.94;5071436;27;45521;-69
2023/06/06 10:26:45;;;;;;;;;16.00;16.00;;;;;24.01;43.11;101424.25;5072078;28;45293;-68
2023/06/06 10:29:22;;;;;;;;;17.67;17.67;;;;;23.92;43.24;101415.19;5068551;28;45554;-69
2023/06/06 10:32:03;;;;;;;;;21.67;18.67;;;;;23.94;43.39;101416.72;5066832;27;45674;-69
2023/06/06 10:34:37;;;;;;;;;18.00;18.00;;;;;23.92;43.21;101402.47;5070277;27;45556;-68
2023/06/06 10:37:16;;;;;;;;;19.00;17.67;;;;;24.04;43.56;101421.22;5062237;28;45561;-71
2023/06/06 10:39:46;;;;;;;;;21.67;18.67;;;;;24.03;43.42;101417.66;5067656;28;45466;-67
2023/06/06 10:42:12;;;;;;;;;23.00;20.33;;;;;24.04;43.60;101416.63;5062027;27;45712;-68
2023/06/06 10:44:54;;;;;;;;;19.33;19.00;;;;;24.02;43.41;101418.66;5054421;28;46011;-68
2023/06/06 10:47:30;;;;;;;;;22.33;18.00;;;;;24.06;43.66;101416.47;5057375;28;45757;-68
2023/06/06 10:50:11;;;;;;;;;19.00;17.67;;;;;24.08;43.45;101409.91;5066898;28;45354;-68
2023/06/06 10:52:54;;;;;;;;;19.67;18.67;;;;;24.10;43.37;101412.50;5052770;28;45464;-69
2023/06/06 10:55:22;;;;;;;;;20.33;19.00;;;;;24.13;43.55;101416.75;5060316;27;45471;-68
2023/06/06 10:58:03;;;;;;;;;18.67;16.33;;;;;24.14;43.64;101402.19;5068204;27;45443;-68
2023/06/06 11:00:33;;;;;;;;;20.33;19.33;;;;;24.13;43.32;101398.63;5051243;27;45579;-68
2023/06/06 11:03:04;;;;;;;;;18.00;15.00;;;;;24.15;43.54;101402.03;5059242;28;45463;-68
2023/06/06 11:05:30;;;;;;;;;17.33;17.33;;;;;24.18;43.62;101400.84;5051986;28;46594;-68
2023/06/06 11:08:02;;;;;;;;;17.33;17.00;;;;;24.19;43.15;101403.41;5062224;28;45851;-69
2023/06/06 11:10:27;;;;;;;;;17.33;13.33;;;;;24.21;43.60;101395.97;5055782;28;45571;-71
2023/06/06 11:12:55;;;;;;;;;18.00;17.33;;;;;24.20;43.48;101383.41;5058698;28;46062;-71
2023/06/06 11:15:30;;;;;;;;;18.67;18.00;;;;;24.24;43.37;101383.97;5069305;28;46164;-67
2023/06/06 11:18:05;;;;;;;;;20.33;17.00;;;;;24.25;43.38;101387.53;5067092;28;45444;-67
2023/06/06 11:20:40;;;;;;;;;16.00;15.33;;;;;24.27;43.11;101382.81;5062972;27;45552;-68
2023/06/06 11:23:08;;;;;;;;;18.67;17.00;;;;;24.28;43.43;101376.38;5061104;28;45747;-68
2023/06/06 11:25:37;;;;;;;;;20.67;17.67;;;;;24.28;43.23;101379.91;5053048;27;45676;-68
2023/06/06 11:28:03;;;;;;;;;20.33;17.00;;;;;24.28;43.17;101379.91;5069830;28;45429;-68
2023/06/06 11:30:33;;;;;;;;;19.67;14.00;;;;;24.29;43.56;101381.63;5066475;27;45470;-67
2023/06/06 11:32:59;;;;;;;;;17.67;16.67;;;;;24.25;43.42;101366.69;5073613;28;45472;-69
2023/06/06 11:35:28;;;;;;;;;20.00;18.33;;;;;24.28;43.07;101373.66;5069040;27;45674;-69
2023/06/06 11:37:53;;;;;;;;;17.33;15.00;;;;;24.30;43.16;101372.47;5068643;28;45504;-69
2023/06/06 11:40:19;;;;;;;;;19.33;16.67;;;;;24.31;43.46;101367.88;5072186;28;45457;-70
2023/06/06 11:42:44;;;;;;;;;16.00;13.33;;;;;24.32;42.97;101365.03;5074782;28;45396;-70
2023/06/06 11:45:16;;;;;;;;;19.00;15.00;;;;;24.33;43.29;101371.31;5073779;27;47078;-70
2023/06/06 11:47:45;;;;;;;;;14.67;14.67;;;;;24.34;43.49;101362.16;5068832;27;45518;-71
2023/06/06 11:50:12;;;;;;;;;15.00;13.67;;;;;24.34;43.33;101359.44;5074865;27;45632;-72
2023/06/06 11:52:55;;;;;;;;;17.00;17.00;;;;;24.35;43.60;101355.72;5074224;28;45456;-69
2023/06/06 11:55:34;;;;;;;;;16.00;13.67;;;;;24.36;43.44;101354.69;5074739;28;58540;-70
2023/06/06 11:58:02;;;;;;;;;13.00;13.00;;;;;24.37;43.49;101355.56;5068940;27;45387;-70
2023/06/06 12:00:28;;;;;;;;;18.67;16.67;;;;;24.39;43.32;101365.25;5071283;28;45429;-68
2023/06/06 12:02:55;;;;;;;;;19.00;17.00;;;;;24.39;43.56;101350.84;5072098;27;46184;-70
2023/06/06 12:05:26;;;;;;;;;17.67;16.33;;;;;24.40;43.34;101355.25;5067302;28;45523;-71
2023/06/06 12:07:58;;;;;;;;;13.00;12.67;;;;;24.41;43.25;101349.66;5074118;27;45354;-68
2023/06/06 12:10:31;;;;;;;;;13.67;13.67;;;;;24.42;43.64;101345.94;5065564;27;45419;-71
2023/06/06 12:12:57;;;;;;;;;13.67;12.67;;;;;24.44;43.47;101351.22;5066433;28;45447;-72
2023/06/06 12:15:28;;;;;;;;;15.33;14.00;;;;;24.46;43.28;101354.59;5058005;28;46773;-69
2023/06/06 12:18:02;;;;;;;;;14.00;13.00;;;;;24.41;43.48;101346.09;5062896;27;45533;-68
2023/06/06 12:20:28;;;;;;;;;13.00;13.00;;;;;24.43;42.89;101344.91;5065000;27;45558;-67
2023/06/06 12:22:53;;;;;;;;;15.67;12.67;;;;;24.42;43.77;101340.50;5073464;27;45616;-69
2023/06/06 12:25:26;;;;;;;;;15.00;13.33;;;;;24.44;43.72;101343.06;5058873;27;46185;-70
2023/06/06 12:27:53;;;;;;;;;15.00;13.33;;;;;24.45;43.88;101339.34;5068562;28;45419;-69
2023/06/06 12:30:32;;;;;;;;;13.00;13.00;;;;;24.47;43.42;101330.03;5067975;28;45447;-69
2023/06/06 12:32:59;;;;;;;;;17.67;16.00;;;;;24.47;43.58;101334.59;5060763;28;45471;-70
2023/06/06 12:35:24;;;;;;;;;15.33;13.00;;;;;24.50;43.32;101330.72;5072011;27;46185;-69
2023/06/06 12:37:50;;;;;;;;;12.33;12.00;;;;;24.51;43.60;101330.56;5070085;27;45874;-70
2023/06/06 12:40:18;;;;;;;;;15.33;12.00;;;;;24.52;43.58;101323.28;5059939;27;45530;-70
2023/06/06 12:42:55;;;;;;;;;15.00;14.33;;;;;24.54;43.98;101327.53;5064837;28;45449;-70
2023/06/06 12:45:22;;;;;;;;;12.33;12.33;;;;;24.55;43.76;101326.50;5064433;27;46382;-69
2023/06/06 12:47:50;;;;;;;;;16.67;14.33;;;;;24.56;43.60;101322.78;5061307;27;45450;-68
2023/06/06 12:50:15;;;;;;;;;12.67;12.33;;;;;24.56;43.36;101322.78;5069746;28;45643;-70
2023/06/06 12:52:40;;;;;;;;;16.67;12.67;;;;;24.56;43.46;101320.06;5064385;28;48824;-68
2023/06/06 12:55:06;;;;;;;;;14.00;13.00;;;;;24.57;43.90;101324.47;5067524;27;46380;-68
2023/06/06 12:57:31;;;;;;;;;14.67;13.67;;;;;24.59;43.36;101321.59;5073957;27;45347;-69
2023/06/06 12:59:57;;;;;;;;;18.00;13.67;;;;;24.57;43.61;101316.31;5065734;28;51634;-68
2023/06/06 13:02:23;;;;;;;;;14.00;13.00;;;;;24.60;43.64;101318.72;5079761;27;45564;-67
2023/06/06 13:04:48;;;;;;;;;10.67;10.33;;;;;24.60;43.60;101318.72;5071399;27;46275;-68
2023/06/06 13:07:13;;;;;;;;;11.00;11.00;;;;;24.61;43.58;101316.88;5062328;27;45582;-68
2023/06/06 13:09:39;;;;;;;;;13.00;12.00;;;;;24.63;44.01;101316.69;5066636;27;46020;-68
2023/06/06 13:12:08;;;;;;;;;13.67;12.67;;;;;24.63;43.79;101317.56;5066797;27;45624;-68
2023/06/06 13:14:38;;;;;;;;;12.67;12.33;;;;;24.64;43.92;101321.97;5062028;28;46558;-68
2023/06/06 13:17:04;;;;;;;;;14.33;13.33;;;;;24.65;43.77;101315.53;5065699;28;46020;-69
2023/06/06 13:19:30;;;;;;;;;10.67;10.67;;;;;24.63;43.48;101317.56;5072113;27;45417;-69
2023/06/06 13:21:55;;;;;;;;;10.67;10.67;;;;;24.65;43.76;101312.84;5072345;27;45385;-68
2023/06/06 13:24:21;;;;;;;;;11.67;10.67;;;;;24.64;43.96;101310.28;5067017;27;46378;-68
2023/06/06 13:26:46;;;;;;;;;10.33;10.33;;;;;24.65;43.71;101304.69;5067638;28;45485;-68
2023/06/06 13:29:12;;;;;;;;;12.67;10.67;;;;;24.67;43.77;101310.78;5063606;28;45432;-68
2023/06/06 13:31:38;;;;;;;;;11.33;11.33;;;;;24.65;43.63;101306.53;5071883;27;45557;-68
2023/06/06 13:34:05;;;;;;;;;15.67;14.00;;;;;24.68;43.62;101319.78;5073454;27;46036;-74
2023/06/06 13:36:30;;;;;;;;;11.33;11.33;;;;;24.68;43.63;101308.94;5073114;28;45494;-73
2023/06/06 13:38:55;;;;;;;;;11.67;10.00;;;;;24.69;43.80;101306.03;5072638;27;45397;-73
2023/06/06 13:41:21;;;;;;;;;14.33;12.33;;;;;24.68;43.67;101298.09;5072917;27;45462;-72
2023/06/06 13:43:46;;;;;;;;;11.00;10.00;;;;;24.70;43.75;101296.03;5073111;27;46547;-73
2023/06/06 13:46:12;;;;;;;;;11.33;11.33;;;;;24.70;43.58;101296.91;5076317;27;45466;-72
2023/06/06 13:48:38;;;;;;;;;13.00;11.33;;;;;24.72;43.37;101292.16;5070818;28;45449;-71
2023/06/06 13:51:03;;;;;;;;;13.67;11.00;;;;;24.72;44.27;101289.44;5070660;27;45657;-71
2023/06/06 13:53:29;;;;;;;;;11.00;11.00;;;;;24.72;43.81;101297.59;5072988;28;45421;-71
2023/06/06 13:55:56;;;;;;;;;13.00;10.67;;;;;24.75;44.06;101290.97;5072503;28;45469;-73
2023/06/06 13:58:23;;;;;;;;;10.33;10.00;;;;;24.77;44.29;101291.66;5073128;27;45533;-73
2023/06/06 14:00:52;;;;;;;;;13.00;11.00;;;;;24.80;43.84;101290.50;5072876;28;45507;-71
2023/06/06 14:03:18;;;;;;;;;12.00;12.00;;;;;24.81;43.74;101289.47;5071680;28;45699;-70
2023/06/06 14:05:43;;;;;;;;;10.67;10.67;;;;;24.81;43.83;101284.88;5068679;28;46037;-70
2023/06/06 14:08:10;;;;;;;;;11.00;11.00;;;;;24.81;43.86;101282.16;5072221;27;45408;-70
2023/06/06 14:10:35;;;;;;;;;11.33;9.33;;;;;24.82;43.38;101281.19;5072284;27;45468;-70
2023/06/06 14:13:01;;;;;;;;;11.00;9.67;;;;;24.83;43.57;101284.75;5064035;28;45445;-70
2023/06/06 14:15:26;;;;;;;;;11.00;11.00;;;;;24.83;43.35;101279.31;5068205;27;45451;-70
2023/06/06 14:17:51;;;;;;;;;13.67;10.67;;;;;24.82;43.42;101281.19;5071507;28;50568;-71
2023/06/06 14:20:21;;;;;;;;;10.67;10.33;;;;;24.82;43.66;101283.03;5071406;28;45561;-72
2023/06/06 14:22:48;;;;;;;;;11.00;10.33;;;;;24.83;43.37;101287.47;5068123;27;47337;-71
2023/06/06 14:25:14;;;;;;;;;9.33;9.33;;;;;24.82;43.32;101274.88;5067608;28;45727;-72
2023/06/06 14:27:40;;;;;;;;;9.67;9.67;;;;;24.83;43.46;101277.47;5061499;27;45560;-72
2023/06/06 14:30:07;;;;;;;;;9.67;9.67;;;;;24.84;43.50;101273.72;5072981;28;45454;-72
2023/06/06 14:32:33;;;;;;;;;10.67;10.67;;;;;24.81;43.67;101268.59;5064917;28;46723;-72
2023/06/06 14:35:04;;;;;;;;;10.33;9.00;;;;;24.87;43.68;101275.28;5062542;28;45835;-71
2023/06/06 14:37:30;;;;;;;;;13.67;10.67;;;;;24.86;43.69;101270.84;5068191;27;45821;-72
2023/06/06 14:39:56;;;;;;;;;10.00;9.33;;;;;24.88;43.75;101266.09;5072474;28;45748;-71
2023/06/06 14:42:22;;;;;;;;;11.67;11.67;;;;;24.89;43.85;101262.38;5072270;27;45486;-71
2023/06/06 14:44:47;;;;;;;;;11.67;10.00;;;;;24.86;43.18;101260.81;5072292;27;45444;-71
2023/06/06 14:47:12;;;;;;;;;9.00;9.00;;;;;24.90;43.12;101263.22;5070914;28;45508;-71
2023/06/06 14:49:42;;;;;;;;;10.67;9.00;;;;;24.92;43.51;101250.31;5072408;27;45430;-68
2023/06/06 14:52:11;;;;;;;;;9.33;9.33;;;;;24.92;43.28;101250.31;5072184;28;46155;-68
2023/06/06 14:54:39;;;;;;;;;12.00;11.67;;;;;24.92;43.14;101240.31;5071140;27;45756;-67
2023/06/06 14:57:05;;;;;;;;;9.00;9.00;;;;;24.91;43.41;101249.50;5066873;27;45880;-69
2023/06/06 14:59:31;;;;;;;;;7.67;7.67;;;;;24.91;43.84;101248.63;5071908;27;45591;-69
2023/06/06 15:01:57;;;;;;;;;11.00;11.00;;;;;24.91;43.46;101245.91;5055298;28;46721;-68
2023/06/06 15:04:24;;;;;;;;;11.00;10.67;;;;;24.93;43.54;101244.72;5065279;28;45380;-69
2023/06/06 15:06:50;;;;;;;;;8.67;8.67;;;;;24.93;43.44;101250.16;5069940;27;45513;-69
2023/06/06 15:09:15;;;;;;;;;11.33;11.00;;;;;24.94;43.33;101253.75;5075836;28;45562;-69
2023/06/06 15:11:41;;;;;;;;;8.67;8.67;;;;;24.94;43.30;101251.88;5074092;27;45499;-69
2023/06/06 15:14:06;;;;;;;;;10.33;10.33;;;;;24.96;43.27;101251.69;5061816;28;54702;-69
2023/06/06 15:16:31;;;;;;;;;9.00;8.00;;;;;24.96;43.44;101257.13;5090963;27;45655;-69
2023/06/06 15:18:57;;;;;;;;;10.00;10.00;;;;;24.94;43.10;101251.03;5075256;28;45474;-70
2023/06/06 15:21:23;;;;;;;;;9.00;9.00;;;;;24.96;43.22;101243.56;5075423;28;46610;-72
2023/06/06 15:23:48;;;;;;;;;10.00;9.00;;;;;24.96;43.66;101246.25;5066291;27;45501;-69
2023/06/06 15:26:13;;;;;;;;;11.33;11.33;;;;;24.97;43.12;101253.41;5062658;27;45548;-72
2023/06/06 15:28:39;;;;;;;;;11.33;9.33;;;;;24.94;43.35;101242.88;5070363;27;45368;-71
2023/06/06 15:31:05;;;;;;;;;9.33;9.33;;;;;24.97;43.07;101237.97;5063543;28;46300;-70
2023/06/06 15:33:30;;;;;;;;;11.00;8.33;;;;;24.98;43.21;101239.66;5063882;27;45963;-74
2023/06/06 15:35:56;;;;;;;;;9.33;9.33;;;;;24.97;43.37;101235.25;5071680;28;45441;-70
2023/06/06 15:38:23;;;;;;;;;13.00;9.67;;;;;24.97;43.46;101235.25;5070167;27;45347;-70
2023/06/06 15:40:49;;;;;;;;;9.33;9.33;;;;;25.00;43.11;101234.06;5071908;28;46646;-70
2023/06/06 15:43:14;;;;;;;;;9.00;9.00;;;;;24.99;43.19;101232.38;5075019;28;45759;-70
2023/06/06 15:45:42;;;;;;;;;8.00;8.00;;;;;25.02;43.27;101233.91;5074281;27;46075;-71
2023/06/06 15:48:07;;;;;;;;;10.67;9.67;;;;;25.02;43.33;101240.19;5075032;27;45509;-70
2023/06/06 15:50:33;;;;;;;;;9.33;9.33;;;;;25.01;43.14;101227.59;5071833;27;46800;-71
2023/06/06 15:52:58;;;;;;;;;9.33;7.00;;;;;25.02;43.24;101223.03;5074059;27;45454;-71
2023/06/06 15:55:23;;;;;;;;;10.00;8.67;;;;;25.01;43.40;101222.16;5075200;27;45482;-69
2023/06/06 15:57:48;;;;;;;;;9.67;8.33;;;;;25.02;43.33;101231.19;5072131;27;45490;-69
2023/06/06 16:00:14;;;;;;;;;7.00;6.67;;;;;24.99;43.42;101227.78;5067951;28;47295;-69
2023/06/06 16:02:39;;;;;;;;;8.00;8.00;;;;;25.01;43.38;101227.59;5074684;28;45761;-69
2023/06/06 16:05:05;;;;;;;;;10.00;9.33;;;;;25.00;42.99;101221.34;5072615;27;55000;-69
2023/06/06 16:07:31;;;;;;;;;9.00;8.00;;;;;24.98;43.46;101226.06;5066520;27;45538;-70
2023/06/06 16:09:56;;;;;;;;;11.00;10.00;;;;;24.97;43.72;101226.25;5058857;27;46459;-69
2023/06/06 16:12:22;;;;;;;;;9.33;9.00;;;;;24.99;43.39;101227.78;5058551;27;45447;-68
2023/06/06 16:14:47;;;;;;;;;10.33;8.33;;;;;24.98;43.09;101226.06;5061014;27;45527;-68
2023/06/06 16:17:13;;;;;;;;;9.33;8.67;;;;;24.97;43.30;101227.09;5058255;28;45509;-69
2023/06/06 16:19:39;;;;;;;;;9.00;8.00;;;;;25.02;43.44;101225.75;5056531;27;47328;-69
2023/06/06 16:22:05;;;;;;;;;11.67;8.67;;;;;25.02;43.36;101229.31;5062751;27;45916;-69
2023/06/06 16:24:30;;;;;;;;;9.67;7.67;;;;;25.02;43.31;101220.31;5055870;28;45652;-69
2023/06/06 16:26:56;;;;;;;;;8.00;8.00;;;;;25.03;43.11;101216.56;5062970;28;45604;-68
2023/06/06 16:29:21;;;;;;;;;13.00;9.33;;;;;25.04;43.11;101230.00;5064539;28;47946;-68
2023/06/06 16:31:46;;;;;;;;;9.67;9.67;;;;;25.04;43.42;101219.13;5066025;27;45506;-68
2023/06/06 16:34:12;;;;;;;;;8.67;8.67;;;;;25.04;43.31;101221.00;5064847;28;45475;-66
2023/06/06 16:36:38;;;;;;;;;7.33;7.00;;;;;25.02;43.20;101228.47;5070714;27;45384;-66
2023/06/06 16:39:03;;;;;;;;;10.00;8.33;;;;;25.03;43.32;101230.16;5052775;27;45498;-66
2023/06/06 16:41:29;;;;;;;;;7.67;7.67;;;;;25.00;43.32;101218.63;5067933;28;46008;-66
2023/06/06 16:43:54;;;;;;;;;8.67;8.33;;;;;24.97;43.22;101224.38;5068295;28;45439;-67
2023/06/06 16:46:20;;;;;;;;;12.00;9.33;;;;;24.97;43.69;101237.13;5065122;27;45537;-67
2023/06/06 16:48:45;;;;;;;;;7.67;7.67;;;;;24.96;44.05;101236.25;5053106;28;46182;-67
2023/06/06 16:51:11;;;;;;;;;8.67;8.00;;;;;24.97;44.13;101237.97;5056162;27;45452;-67
2023/06/06 16:53:36;;;;;;;;;6.00;6.00;;;;;24.95;44.16;101226.44;5061923;28;45856;-67
2023/06/06 16:56:01;;;;;;;;;7.33;7.33;;;;;24.95;44.02;101222.84;5055489;27;51642;-67
2023/06/06 16:58:27;;;;;;;;;7.67;7.67;;;;;24.95;44.28;101221.00;5055897;28;45367;-67
